Time;durP1;ratioP1;P1;durP2;ratioP2;P2;SDS_P1;SDS_P2;PMS_P1;PMS_P2;Temp;Humidity;BMP_temperature;BMP_pressure;BME280_temperature;BME280_humidity;BME280_pressure;Samples;Min_cycle;Max_cycle;Signal;HPM_P1;HPM_P2
2021/07/27 00:00:32;;;;;;;;;;;;;;;;;;;;;
2021/07/27 00:03:09;;;;;;;;;;;;;;;;;;;;;
2021/07/27 00:06:15;;;;;;;;;;;;;;;;;;;;;
2021/07/27 00:09:59;;;;;;;;;;;;;;;;;;;;;
2021/07/27 00:12:38;;;;;;;0.70;0.60;;;;;;;14.67;92.03;92737.06;5087918;28;20045;-94
2021/07/27 00:15:45;;;;;;;1.05;0.68;;;;;;;14.69;91.74;92733.06;5046699;28;20465;-94
2021/07/27 00:22:44;;;;;;;;;;;;;;;;;;;;;
2021/07/27 00:26:58;;;;;;;;;;;;;;;;;;;;;
2021/07/27 00:33:03;;;;;;;0.50;0.50;;;;;;;14.66;91.51;92712.59;5060018;28;20047;-94
2021/07/27 00:36:17;;;;;;;;;;;;;;;;;;;;;
2021/07/27 00:39:21;;;;;;;;;;;;;;;;;;;;;
2021/07/27 00:42:14;;;;;;;;;;;;;;;;;;;;;
2021/07/27 00:45:31;;;;;;;;;;;;;;;;;;;;;
2021/07/27 00:48:51;;;;;;;;;;;;;;;;;;;;;
2021/07/27 00:52:22;;;;;;;0.82;0.77;;;;;;;14.96;91.00;92762.91;5048567;28;20093;-94
2021/07/27 00:55:27;;;;;;;;;;;;;;;;;;;;;
2021/07/27 00:59:10;;;;;;;0.65;0.65;;;;;;;14.62;90.54;92745.13;5053277;28;20052;-96
2021/07/27 01:08:38;;;;;;;0.40;0.40;;;;;;;14.83;89.37;92782.22;5012354;28;20069;-94
2021/07/27 01:15:40;;;;;;;0.60;0.60;;;;;;;14.85;89.12;92780.06;5064768;28;20036;-94
2021/07/27 01:43:06;;;;;;;0.30;0.30;;;;;;;14.95;89.11;92785.06;5071710;28;20082;-94
2021/07/27 01:46:22;;;;;;;;;;;;;;;;;;;;;
2021/07/27 02:03:55;;;;;;;;;;;;;;;;;;;;;
2021/07/27 02:07:45;;;;;;;;;;;;;;;;;;;;;
2021/07/27 02:22:46;;;;;;;;;;;;;;;;;;;;;
2021/07/27 02:25:43;;;;;;;0.85;0.80;;;;;;;14.63;90.81;92689.47;4955434;28;20044;-95
2021/07/27 02:29:25;;;;;;;;;;;;;;;;;;;;;
2021/07/27 02:33:17;;;;;;;;;;;;;;;;;;;;;
2021/07/27 02:36:51;;;;;;;;;;;;;;;;;;;;;
2021/07/27 02:40:16;;;;;;;;;;;;;;;;;;;;;
2021/07/27 02:43:53;;;;;;;1.00;0.93;;;;;;;14.76;91.02;92733.38;4991834;28;20053;-94
2021/07/27 02:58:06;;;;;;;;;;;;;;;;;;;;;
2021/07/27 03:01:55;;;;;;;0.50;0.50;;;;;;;14.96;89.24;92744.44;5093130;28;20035;-94
2021/07/27 03:05:40;;;;;;;1.65;0.98;;;;;;;14.94;90.20;92736.06;4990691;28;20097;-94
2021/07/27 03:12:32;;;;;;;0.40;0.40;;;;;;;14.56;89.95;92689.91;5088586;28;20131;-94
2021/07/27 03:16:06;;;;;;;0.65;0.63;;;;;;;14.78;90.84;92728.59;5079030;28;20131;-96
2021/07/27 03:19:48;;;;;;;;;;;;;;;;;;;;;
2021/07/27 03:27:08;;;;;;;1.48;1.35;;;;;;;14.52;90.78;92701.34;5034994;28;20051;-95
2021/07/27 03:30:35;;;;;;;;;;;;;;;;;;;;;
2021/07/27 03:42:08;;;;;;;;;;;;;;;;;;;;;
2021/07/27 03:46:09;;;;;;;0.50;0.50;;;;;;;14.58;91.80;92713.31;5083541;28;20445;-94
2021/07/27 03:49:01;;;;;;;;;;;;;;;;;;;;;
2021/07/27 04:11:32;;;;;;;;;;;;;;;;;;;;;
2021/07/27 04:37:50;;;;;;;;;;;;;;;;;;;;;
2021/07/27 04:56:04;;;;;;;0.35;0.35;;;;;;;14.76;91.00;92756.31;4979260;22;20121;-78
2021/07/27 04:58:30;;;;;;;0.55;0.55;;;;;;;14.81;90.53;92758.81;5047344;28;20127;-78
2021/07/27 05:01:01;;;;;;;0.40;0.40;;;;;;;14.82;90.69;92752.47;5077988;28;20028;-78
2021/07/27 05:03:30;;;;;;;1.17;1.08;;;;;;;14.85;90.74;92743.19;5075745;28;20039;-82
2021/07/27 05:05:56;;;;;;;0.73;0.73;;;;;;;14.84;91.08;92746.88;5055104;28;20045;-78
2021/07/27 05:08:22;;;;;;;0.40;0.40;;;;;;;14.78;90.44;92744.38;5060195;28;20031;-77
2021/07/27 05:10:49;;;;;;;0.35;0.35;;;;;;;14.86;90.44;92740.25;5068528;28;20119;-78
2021/07/27 05:13:14;;;;;;;1.67;1.08;;;;;;;14.90;90.48;92745.66;5072884;28;20040;-78
2021/07/27 05:15:40;;;;;;;1.10;0.60;;;;;;;14.92;90.41;92754.81;5073489;28;20032;-77
2021/07/27 05:18:06;;;;;;;1.13;0.82;;;;;;;14.95;90.03;92763.97;5072097;28;20044;-78
2021/07/27 05:20:32;;;;;;;0.93;0.60;;;;;;;14.96;89.78;92749.72;5073504;28;20043;-77
2021/07/27 05:22:58;;;;;;;1.27;0.75;;;;;;;15.02;89.88;92755.63;5075302;28;20086;-78
2021/07/27 05:25:24;;;;;;;0.60;0.60;;;;;;;15.06;91.29;92757.31;5074715;28;20040;-77
2021/07/27 05:27:50;;;;;;;0.65;0.65;;;;;;;14.99;91.23;92770.19;5075080;28;20029;-77
2021/07/27 05:30:16;;;;;;;0.30;0.30;;;;;;;15.04;90.95;92766.63;5075673;28;20033;-78
2021/07/27 05:32:43;;;;;;;0.63;0.63;;;;;;;15.09;90.73;92767.28;5075188;28;20041;-78
2021/07/27 05:35:10;;;;;;;0.65;0.63;;;;;;;15.13;90.08;92776.13;5074061;28;20024;-76
2021/07/27 05:37:36;;;;;;;0.57;0.57;;;;;;;15.21;88.86;92777.22;5074777;28;20040;-78
2021/07/27 05:40:06;;;;;;;0.93;0.68;;;;;;;15.27;88.78;92775.22;5074652;28;20029;-78
2021/07/27 05:42:31;;;;;;;0.73;0.73;;;;;;;15.51;89.71;92782.69;5073962;28;20078;-78
2021/07/27 05:44:57;;;;;;;1.65;0.75;;;;;;;15.71;89.14;92774.19;5039373;28;20118;-78
2021/07/27 05:47:23;;;;;;;0.95;0.65;;;;;;;15.81;87.95;92768.63;5073436;28;20037;-78
2021/07/27 05:49:48;;;;;;;1.27;0.98;;;;;;;15.78;87.64;92771.09;5073775;28;20506;-77
2021/07/27 05:52:14;;;;;;;0.40;0.40;;;;;;;15.62;87.66;92771.53;5072812;28;20394;-78
2021/07/27 05:54:40;;;;;;;0.57;0.43;;;;;;;15.49;88.26;92777.75;5073538;28;20044;-78
2021/07/27 05:57:13;;;;;;;0.57;0.57;;;;;;;15.42;89.03;92787.97;5070709;28;20071;-78
2021/07/27 05:59:40;;;;;;;0.55;0.55;;;;;;;15.36;89.38;92799.75;5074859;28;20048;-78
2021/07/27 06:02:07;;;;;;;0.30;0.30;;;;;;;15.39;90.09;92799.91;5069585;28;20112;-77
2021/07/27 06:04:33;;;;;;;0.43;0.43;;;;;;;15.25;90.30;92801.13;5083243;28;20075;-77
2021/07/27 06:06:59;;;;;;;0.60;0.60;;;;;;;15.24;90.32;92786.38;5054723;28;20037;-78
2021/07/27 06:09:24;;;;;;;1.00;0.88;;;;;;;15.22;90.43;92773.53;5054360;28;20295;-78
2021/07/27 06:11:50;;;;;;;0.40;0.40;;;;;;;15.29;90.60;92778.31;5052945;28;20033;-78
2021/07/27 06:14:16;;;;;;;0.55;0.55;;;;;;;15.34;90.52;92780.81;5052423;28;20032;-78
2021/07/27 06:16:42;;;;;;;0.50;0.50;;;;;;;15.45;90.47;92795.28;5056111;28;20040;-78
2021/07/27 06:19:08;;;;;;;1.08;0.95;;;;;;;15.57;90.16;92798.06;5061004;28;20482;-78
2021/07/27 06:21:36;;;;;;;1.58;1.10;;;;;;;15.67;90.20;92799.66;5052247;28;20120;-78
2021/07/27 06:24:02;;;;;;;1.27;1.00;;;;;;;15.73;88.91;92798.44;5070113;28;20494;-77
2021/07/27 06:26:28;;;;;;;0.43;0.43;;;;;;;15.71;88.53;92795.31;5056181;28;20095;-78
2021/07/27 06:28:54;;;;;;;1.35;0.82;;;;;;;15.66;89.55;92798.09;5061566;28;20094;-77
2021/07/27 06:31:20;;;;;;;1.05;0.70;;;;;;;15.63;90.72;92801.34;5071822;28;20041;-78
2021/07/27 06:33:46;;;;;;;0.40;0.40;;;;;;;15.52;91.60;92803.50;5072114;28;20040;-78
2021/07/27 06:36:12;;;;;;;0.30;0.30;;;;;;;15.42;92.74;92819.63;5074026;28;20044;-79
2021/07/27 06:38:38;;;;;;;0.75;0.40;;;;;;;15.27;91.99;92817.44;5078267;28;20028;-78
2021/07/27 06:41:06;;;;;;;0.88;0.68;;;;;;;15.11;92.98;92814.44;5061697;28;20049;-78
2021/07/27 06:43:33;;;;;;;1.33;0.80;;;;;;;15.13;93.32;92823.59;5071028;28;20029;-79
2021/07/27 06:45:59;;;;;;;0.95;0.90;;;;;;;15.14;93.84;92817.22;5074190;28;20041;-78
2021/07/27 06:48:25;;;;;;;0.73;0.73;;;;;;;15.20;93.71;92821.28;5073110;28;20039;-78
2021/07/27 06:50:51;;;;;;;0.88;0.88;;;;;;;15.26;94.16;92823.78;5071514;28;20032;-78
2021/07/27 06:53:17;;;;;;;0.82;0.80;;;;;;;15.30;93.92;92816.81;5069999;28;20044;-79
2021/07/27 06:55:43;;;;;;;1.23;0.95;;;;;;;15.35;93.58;92827.22;5074547;28;20040;-77
2021/07/27 06:58:09;;;;;;;1.27;1.10;;;;;;;15.39;93.27;92825.50;5071381;28;20094;-77
2021/07/27 07:00:35;;;;;;;0.65;0.65;;;;;;;15.41;92.81;92823.34;5061399;28;20043;-78
2021/07/27 07:03:01;;;;;;;0.50;0.50;;;;;;;15.43;92.90;92823.81;5034737;28;20486;-77
2021/07/27 07:05:26;;;;;;;0.50;0.50;;;;;;;15.47;92.19;92816.84;5070672;28;20500;-78
2021/07/27 07:07:52;;;;;;;0.77;0.77;;;;;;;15.56;92.24;92809.72;5052602;28;20431;-77
2021/07/27 07:10:18;;;;;;;1.02;0.68;;;;;;;15.65;91.91;92803.66;5074501;28;20028;-78
2021/07/27 07:12:44;;;;;;;0.52;0.50;;;;;;;15.71;91.32;92797.94;5075292;28;20036;-78
2021/07/27 07:15:10;;;;;;;0.77;0.75;;;;;;;15.82;90.52;92791.28;5071268;28;20127;-78
2021/07/27 07:17:35;;;;;;;0.98;0.88;;;;;;;15.89;86.06;92782.91;5069399;28;20035;-77
2021/07/27 07:20:01;;;;;;;1.00;0.80;;;;;;;15.99;86.44;92779.94;5070538;28;20032;-78
2021/07/27 07:22:29;;;;;;;2.55;0.75;;;;;;;16.10;86.23;92777.78;5071943;28;20021;-77
2021/07/27 07:24:55;;;;;;;0.40;0.40;;;;;;;16.29;82.83;92793.28;5071258;28;20068;-77
2021/07/27 07:27:21;;;;;;;0.50;0.50;;;;;;;16.59;85.10;92809.22;5062468;28;20071;-78
2021/07/27 07:29:46;;;;;;;0.50;0.50;;;;;;;16.08;88.75;92818.78;5060627;28;20058;-78
2021/07/27 07:32:12;;;;;;;0.63;0.63;;;;;;;16.07;88.59;92843.63;5071455;28;20105;-78
2021/07/27 07:34:38;;;;;;;5.78;0.68;;;;;;;15.54;90.86;92848.06;5071879;28;20036;-79
2021/07/27 07:37:06;;;;;;;0.40;0.40;;;;;;;15.35;93.32;92845.66;5071199;28;20329;-78
2021/07/27 07:39:33;;;;;;;0.40;0.40;;;;;;;15.25;93.87;92841.47;5054279;28;20127;-78
2021/07/27 07:41:59;;;;;;;0.30;0.30;;;;;;;15.16;93.02;92844.06;5049298;28;20041;-78
2021/07/27 07:44:25;;;;;;;0.47;0.47;;;;;;;15.11;93.83;92846.84;5060067;28;20043;-77
2021/07/27 07:46:51;;;;;;;0.38;0.38;;;;;;;15.02;94.17;92843.41;5064958;28;20048;-78
2021/07/27 07:49:17;;;;;;;0.57;0.52;;;;;;;14.93;94.08;92851.28;5050650;28;20037;-79
2021/07/27 07:51:47;;;;;;;0.38;0.38;;;;;;;14.89;94.15;92854.81;5054162;28;20091;-77
2021/07/27 07:54:14;;;;;;;0.40;0.40;;;;;;;14.86;94.27;92852.78;5050586;28;20044;-78
2021/07/27 07:56:46;;;;;;;0.50;0.50;;;;;;;14.87;93.29;92855.13;5061359;28;20051;-78
2021/07/27 07:59:13;;;;;;;2.83;1.60;;;;;;;14.93;92.24;92855.78;5070000;28;20097;-78
2021/07/27 08:01:44;;;;;;;1.45;1.05;;;;;;;14.98;90.74;92853.00;5068786;28;20450;-78
2021/07/27 08:04:11;;;;;;;1.50;0.87;;;;;;;15.02;91.58;92861.06;5072481;28;20029;-78
2021/07/27 08:06:38;;;;;;;0.52;0.52;;;;;;;15.09;91.49;92853.50;5069008;28;20060;-78
2021/07/27 08:09:03;;;;;;;3.30;0.80;;;;;;;15.13;90.88;92857.88;5053928;28;20029;-79
2021/07/27 08:11:29;;;;;;;0.70;0.70;;;;;;;15.20;90.51;92855.56;5050382;28;20037;-78
2021/07/27 08:13:57;;;;;;;0.60;0.60;;;;;;;15.11;91.05;92872.44;5034092;28;20513;-79
2021/07/27 08:16:23;;;;;;;1.35;0.82;;;;;;;15.04;91.10;92866.81;5052217;28;20037;-78
2021/07/27 08:18:48;;;;;;;0.73;0.73;;;;;;;14.97;92.31;92864.59;5035446;28;20024;-78
2021/07/27 08:21:15;;;;;;;0.30;0.30;;;;;;;14.93;92.90;92845.22;5050422;28;20049;-80
2021/07/27 08:23:45;;;;;;;0.30;0.30;;;;;;;15.05;92.86;92845.41;5052632;28;20090;-77
2021/07/27 08:26:11;;;;;;;0.50;0.50;;;;;;;15.19;92.98;92832.91;5064858;28;20036;-78
2021/07/27 08:28:38;;;;;;;0.38;0.38;;;;;;;15.36;92.53;92839.31;5052534;28;20032;-79
2021/07/27 08:31:05;;;;;;;0.50;0.50;;;;;;;15.47;92.06;92845.06;5071483;28;20063;-78
2021/07/27 08:33:30;;;;;;;0.68;0.50;;;;;;;15.60;91.86;92847.59;5067915;28;20033;-79
2021/07/27 08:35:57;;;;;;;0.40;0.40;;;;;;;15.70;92.13;92846.53;5051218;28;20116;-78
2021/07/27 08:38:23;;;;;;;0.50;0.50;;;;;;;15.81;91.64;92852.31;5054501;28;20484;-78
2021/07/27 08:40:50;;;;;;;0.55;0.55;;;;;;;15.89;90.52;92848.88;5069883;28;20033;-78
2021/07/27 08:43:17;;;;;;;0.40;0.40;;;;;;;15.95;89.91;92831.81;5070813;28;20052;-78
2021/07/27 08:45:47;;;;;;;0.45;0.45;;;;;;;15.97;89.72;92840.22;5068751;28;20036;-77
2021/07/27 08:48:15;;;;;;;0.95;0.57;;;;;;;15.99;88.08;92845.97;5069378;28;20040;-79
2021/07/27 08:50:43;;;;;;;0.77;0.70;;;;;;;15.89;89.91;92840.97;5072114;28;20119;-77
2021/07/27 08:53:09;;;;;;;0.85;0.82;;;;;;;15.85;89.63;92837.41;5071460;28;20056;-78
2021/07/27 08:55:35;;;;;;;0.68;0.60;;;;;;;15.75;90.66;92843.00;5069044;28;20502;-75
2021/07/27 08:58:01;;;;;;;0.35;0.35;;;;;;;15.71;91.74;92847.31;5067672;28;20112;-77
2021/07/27 09:00:29;;;;;;;0.50;0.50;;;;;;;15.60;92.01;92858.16;5069477;28;20546;-73
2021/07/27 09:02:54;;;;;;;0.70;0.50;;;;;;;15.50;92.36;92862.94;5068331;28;20383;-74
2021/07/27 09:05:20;;;;;;;0.40;0.40;;;;;;;15.40;92.44;92858.72;5056097;28;20091;-78
2021/07/27 09:07:46;;;;;;;1.85;0.93;;;;;;;15.30;93.70;92865.06;5070072;28;20166;-78
2021/07/27 09:10:15;;;;;;;0.38;0.38;;;;;;;15.33;90.38;92863.66;5070968;28;20375;-78
2021/07/27 09:12:59;;;;;;;0.70;0.70;;;;;;;15.39;89.90;92878.28;5070092;28;20033;-77
2021/07/27 09:15:27;;;;;;;0.75;0.75;;;;;;;15.31;91.06;92881.66;5071028;28;20036;-78
2021/07/27 09:17:54;;;;;;;0.80;0.68;;;;;;;15.25;92.32;92890.78;5070680;28;20032;-78
2021/07/27 09:20:29;;;;;;;0.38;0.38;;;;;;;15.31;92.31;92897.47;5070826;28;20029;-78
2021/07/27 09:22:55;;;;;;;0.30;0.30;;;;;;;15.14;93.87;92893.69;5069900;28;20052;-78
2021/07/27 09:25:28;;;;;;;0.30;0.30;;;;;;;15.06;94.09;92889.16;5068396;28;20029;-77
2021/07/27 09:28:00;;;;;;;0.20;0.20;;;;;;;14.86;95.12;92916.03;5069640;28;20101;-78
2021/07/27 09:30:26;;;;;;;0.30;0.30;;;;;;;14.80;95.13;92920.66;5069413;28;20122;-78
2021/07/27 09:32:52;;;;;;;0.28;0.25;;;;;;;14.74;93.04;92922.63;5072436;28;20040;-78
2021/07/27 09:35:22;;;;;;;0.50;0.50;;;;;;;14.75;93.23;92913.66;5090011;28;20553;-78
2021/07/27 09:38:07;;;;;;;0.20;0.20;;;;;;;14.73;93.98;92913.19;5070894;28;20071;-79
2021/07/27 09:40:35;;;;;;;0.30;0.30;;;;;;;14.57;94.10;92918.03;5067405;28;20056;-77
2021/07/27 09:43:01;;;;;;;0.47;0.47;;;;;;;14.43;95.08;92916.50;5072651;28;20086;-78
2021/07/27 09:45:28;;;;;;;0.38;0.38;;;;;;;14.51;95.52;92916.56;5072012;28;20036;-77
2021/07/27 09:47:54;;;;;;;0.73;0.63;;;;;;;14.54;95.25;92928.34;5071569;28;20044;-77
2021/07/27 09:50:24;;;;;;;0.30;0.30;;;;;;;14.51;96.05;92928.97;5071689;28;20590;-77
2021/07/27 09:52:51;;;;;;;0.30;0.30;;;;;;;14.45;95.87;92914.34;5070950;28;20570;-77
2021/07/27 09:55:24;;;;;;;0.40;0.40;;;;;;;14.51;95.85;92907.88;5067303;28;20080;-78
2021/07/27 09:57:50;;;;;;;0.60;0.60;;;;;;;14.55;95.84;92908.88;5070701;28;20037;-78
2021/07/27 10:00:17;;;;;;;0.40;0.40;;;;;;;14.61;95.71;92902.38;5054862;28;20027;-78
2021/07/27 10:02:47;;;;;;;0.30;0.30;;;;;;;14.68;96.65;92918.56;5055174;28;20051;-79
2021/07/27 10:05:19;;;;;;;0.30;0.30;;;;;;;14.82;96.31;92934.31;5059385;28;20033;-78
2021/07/27 10:07:51;;;;;;;;;;;;;;;14.84;95.17;92897.09;5054290;28;20123;-78
2021/07/27 10:10:16;;;;;;;0.30;0.30;;;;;;;14.90;94.87;92885.34;5052584;28;19955;-78
2021/07/27 10:12:42;;;;;;;0.50;0.50;;;;;;;15.01;94.07;92889.28;5051699;28;20037;-78
2021/07/27 10:15:18;;;;;;;0.55;0.52;;;;;;;15.16;94.27;92891.53;5050961;28;20037;-78
2021/07/27 10:17:51;;;;;;;0.40;0.40;;;;;;;15.32;93.36;92899.03;5050702;28;20373;-77
2021/07/27 10:20:28;;;;;;;0.50;0.50;;;;;;;15.44;92.96;92896.59;5067812;28;20041;-78
2021/07/27 10:22:54;;;;;;;0.35;0.35;;;;;;;15.52;91.37;92901.13;5068153;28;20498;-78
2021/07/27 10:25:20;;;;;;;0.60;0.60;;;;;;;15.58;91.19;92894.63;5054407;28;20041;-78
2021/07/27 10:27:48;;;;;;;0.30;0.30;;;;;;;15.62;90.01;92894.78;5054098;28;20056;-77
2021/07/27 10:30:14;;;;;;;1.35;0.40;;;;;;;15.66;89.55;92902.88;5056464;28;20041;-77
2021/07/27 10:32:52;;;;;;;1.35;0.90;;;;;;;15.74;89.95;92902.91;5050661;28;20038;-78
2021/07/27 10:35:34;;;;;;;0.30;0.30;;;;;;;15.85;90.62;92908.69;5042144;28;20045;-78
2021/07/27 10:38:14;;;;;;;0.30;0.30;;;;;;;15.90;91.07;92887.41;5054935;28;20025;-78
2021/07/27 10:40:42;;;;;;;0.35;0.35;;;;;;;15.98;90.76;92893.78;5058170;28;20047;-78
2021/07/27 10:43:08;;;;;;;0.40;0.40;;;;;;;16.00;90.59;92884.47;5062012;28;20557;-77
2021/07/27 10:45:34;;;;;;;0.63;0.63;;;;;;;16.05;90.65;92890.69;5060001;28;20577;-78
2021/07/27 10:48:00;;;;;;;0.60;0.60;;;;;;;16.00;90.03;92881.81;5057893;28;20040;-78
2021/07/27 10:50:29;;;;;;;0.70;0.70;;;;;;;15.97;89.66;92881.69;5054240;28;20032;-78
2021/07/27 10:53:13;;;;;;;0.50;0.50;;;;;;;15.91;89.74;92890.84;5057432;28;20025;-78
2021/07/27 10:55:42;;;;;;;0.50;0.50;;;;;;;15.87;89.93;92903.09;5044266;28;20063;-78
2021/07/27 10:58:16;;;;;;;1.02;0.70;;;;;;;15.87;90.82;92909.13;5089566;28;20086;-78
2021/07/27 11:00:42;;;;;;;0.30;0.30;;;;;;;15.84;91.36;92893.94;5061823;28;20656;-78
2021/07/27 11:03:08;;;;;;;0.40;0.40;;;;;;;15.80;91.16;92871.88;5052820;28;20074;-79
2021/07/27 11:05:37;;;;;;;0.47;0.47;;;;;;;15.81;91.82;92886.63;5071909;28;20047;-78
2021/07/27 11:08:03;;;;;;;0.60;0.60;;;;;;;15.79;91.91;92912.56;5074344;28;20056;-78
2021/07/27 11:10:33;;;;;;;0.40;0.40;;;;;;;15.70;91.82;92922.28;5069993;28;20074;-79
2021/07/27 11:12:59;;;;;;;0.30;0.30;;;;;;;15.69;91.67;92902.25;5070553;28;20025;-79
2021/07/27 11:15:26;;;;;;;0.70;0.70;;;;;;;15.70;90.58;92893.25;5078153;28;20374;-78
2021/07/27 11:17:57;;;;;;;0.50;0.50;;;;;;;15.77;90.40;92890.97;5075473;28;20037;-79
2021/07/27 11:20:30;;;;;;;1.25;1.05;;;;;;;15.88;90.13;92886.19;5074768;28;20094;-79
2021/07/27 11:22:57;;;;;;;0.50;0.50;;;;;;;16.05;89.24;92893.31;5073532;28;20551;-79
2021/07/27 11:25:25;;;;;;;0.90;0.85;;;;;;;16.18;89.20;92897.69;5072718;28;20056;-78
2021/07/27 11:27:52;;;;;;;0.88;0.70;;;;;;;16.35;88.04;92897.69;5070420;28;20478;-78
2021/07/27 11:30:20;;;;;;;0.73;0.73;;;;;;;16.51;88.41;92886.66;5053859;28;20525;-78
2021/07/27 11:32:50;;;;;;;0.50;0.50;;;;;;;16.57;87.63;92878.25;5070664;28;20042;-78
2021/07/27 11:35:22;;;;;;;0.63;0.63;;;;;;;16.65;86.45;92879.31;5075570;28;20476;-78
2021/07/27 11:37:59;;;;;;;;;;;;;;;16.89;86.19;92893.91;5074341;28;20132;-78
2021/07/27 11:40:25;;;;;;;0.50;0.50;;;;;;;17.03;84.73;92883.94;5075479;28;19970;-77
2021/07/27 11:43:06;;;;;;;0.55;0.50;;;;;;;17.01;83.97;92884.25;5074279;28;20401;-78
2021/07/27 11:45:50;;;;;;;0.50;0.50;;;;;;;16.85;84.59;92878.69;5075006;28;20040;-77
2021/07/27 11:48:16;;;;;;;0.50;0.50;;;;;;;17.06;85.19;92876.13;5076045;28;20406;-78
2021/07/27 11:50:43;;;;;;;0.30;0.30;;;;;;;17.34;85.06;92867.00;5074558;28;20040;-78
2021/07/27 11:53:23;;;;;;;0.38;0.38;;;;;;;17.68;83.79;92864.19;5075601;28;20036;-78
2021/07/27 11:55:49;;;;;;;0.70;0.70;;;;;;;18.05;83.07;92861.78;5073807;28;20048;-78
2021/07/27 11:58:28;;;;;;;0.50;0.50;;;;;;;18.56;79.11;92855.59;5092491;28;20524;-78
2021/07/27 12:00:56;;;;;;;0.25;0.25;;;;;;;19.02;76.13;92845.78;5092811;28;20127;-77
2021/07/27 12:03:22;;;;;;;0.45;0.45;;;;;;;18.95;73.46;92845.56;5076434;28;20031;-78
2021/07/27 12:05:48;;;;;;;0.32;0.32;;;;;;;18.86;76.49;92845.66;5078568;28;20032;-78
2021/07/27 12:08:13;;;;;;;0.88;0.63;;;;;;;18.72;74.72;92837.97;5077530;28;20491;-77
2021/07/27 12:10:39;;;;;;;0.30;0.30;;;;;;;18.63;75.22;92830.09;5078419;28;20032;-78
2021/07/27 12:13:05;;;;;;;0.30;0.30;;;;;;;18.73;77.34;92818.31;5076671;28;20028;-78
2021/07/27 12:15:31;;;;;;;0.50;0.50;;;;;;;18.82;80.22;92826.97;5078464;28;20040;-78
2021/07/27 12:17:56;;;;;;;2.88;0.75;;;;;;;19.06;78.34;92820.94;5079965;28;20032;-78
2021/07/27 12:20:22;;;;;;;0.50;0.50;;;;;;;19.41;77.72;92822.38;5078823;28;20021;-78
2021/07/27 12:22:48;;;;;;;0.45;0.45;;;;;;;19.93;74.54;92825.13;5071495;28;20048;-78
2021/07/27 12:25:14;;;;;;;0.40;0.40;;;;;;;19.93;75.50;92825.13;5058285;28;20033;-77
2021/07/27 12:27:42;;;;;;;0.40;0.40;;;;;;;19.94;74.57;92828.53;5067411;28;20028;-78
2021/07/27 12:30:08;;;;;;;1.00;0.90;;;;;;;19.76;75.36;92836.75;5061968;28;20037;-78
2021/07/27 12:32:34;;;;;;;0.60;0.60;;;;;;;19.78;75.69;92823.16;5055802;28;20048;-78
2021/07/27 12:34:59;;;;;;;0.73;0.73;;;;;;;19.83;73.47;92814.16;5073526;28;20040;-78
2021/07/27 12:37:25;;;;;;;0.60;0.55;;;;;;;20.07;75.61;92808.78;5057265;28;20056;-77
2021/07/27 12:39:51;;;;;;;1.48;0.52;;;;;;;20.41;75.03;92813.88;5074639;28;20130;-77
2021/07/27 12:42:16;;;;;;;0.70;0.65;;;;;;;20.74;74.75;92813.66;5074231;28;20033;-78
2021/07/27 12:44:42;;;;;;;0.63;0.60;;;;;;;20.53;74.07;92816.47;5074569;28;20047;-78
2021/07/27 12:47:08;;;;;;;0.60;0.60;;;;;;;20.44;74.48;92818.53;5074935;28;20040;-78
2021/07/27 12:49:34;;;;;;;0.50;0.50;;;;;;;20.34;75.68;92819.78;5075099;28;20040;-78
2021/07/27 12:52:01;;;;;;;0.65;0.60;;;;;;;20.32;73.93;92811.38;5076245;28;20099;-77
2021/07/27 12:54:27;;;;;;;0.77;0.70;;;;;;;20.46;79.03;92800.34;5069450;28;20440;-77
2021/07/27 12:56:53;;;;;;;0.40;0.40;;;;;;;21.05;77.10;92801.47;5071871;28;20056;-78
2021/07/27 12:59:19;;;;;;;0.73;0.68;;;;;;;21.13;74.30;92797.88;5054444;28;20777;-78
2021/07/27 13:01:44;;;;;;;1.33;1.05;;;;;;;20.35;76.87;92805.38;5074670;28;20060;-78
2021/07/27 13:04:10;;;;;;;0.40;0.40;;;;;;;19.90;77.31;92795.78;5046084;28;20071;-78
2021/07/27 13:06:36;;;;;;;1.48;0.90;;;;;;;20.34;75.28;92785.22;5061319;28;20037;-78
2021/07/27 13:09:03;;;;;;;0.35;0.35;;;;;;;20.74;75.65;92787.06;5056624;28;20150;-79
2021/07/27 13:11:29;;;;;;;0.70;0.70;;;;;;;21.06;75.72;92798.47;5055825;28;20055;-78
2021/07/27 13:13:55;;;;;;;0.60;0.60;;;;;;;20.99;74.22;92808.94;5057104;28;20041;-77
2021/07/27 13:16:21;;;;;;;0.77;0.77;;;;;;;19.96;79.87;92815.69;5058391;28;20021;-81
2021/07/27 13:18:47;;;;;;;0.70;0.63;;;;;;;19.95;79.05;92811.50;5076282;28;20036;-79
2021/07/27 13:21:13;;;;;;;1.23;0.90;;;;;;;20.15;79.39;92809.75;5058641;28;20036;-80
2021/07/27 13:23:41;;;;;;;1.35;1.25;;;;;;;20.36;77.10;92799.72;5076008;28;20090;-80
2021/07/27 13:26:08;;;;;;;0.47;0.47;;;;;;;20.61;76.45;92798.88;5075596;28;20428;-80
2021/07/27 13:28:34;;;;;;;0.50;0.50;;;;;;;20.80;76.99;92801.63;5076125;28;20062;-81
2021/07/27 13:31:00;;;;;;;1.85;0.88;;;;;;;20.96;77.77;92805.09;5091462;28;20488;-80
2021/07/27 13:33:26;;;;;;;0.45;0.45;;;;;;;21.04;76.23;92805.25;5060455;28;20037;-80
2021/07/27 13:35:51;;;;;;;0.68;0.50;;;;;;;21.12;76.37;92791.00;5067966;28;20039;-80
2021/07/27 13:38:17;;;;;;;1.20;0.90;;;;;;;21.11;74.73;92787.56;5060357;28;20083;-80
2021/07/27 13:40:43;;;;;;;2.60;1.13;;;;;;;21.07;74.28;92781.38;5067166;28;20033;-80
2021/07/27 13:43:08;;;;;;;0.45;0.45;;;;;;;21.21;74.87;92795.03;5050374;28;20105;-79
2021/07/27 13:45:34;;;;;;;0.40;0.40;;;;;;;21.04;74.83;92802.59;5074766;28;20469;-80
2021/07/27 13:48:01;;;;;;;0.50;0.50;;;;;;;20.81;74.10;92797.88;5056026;28;20029;-79
2021/07/27 13:50:27;;;;;;;0.65;0.60;;;;;;;20.61;70.02;92789.00;5053045;28;20449;-79
2021/07/27 13:52:52;;;;;;;1.02;0.90;;;;;;;20.30;72.39;92784.34;5061969;28;20036;-77
2021/07/27 13:55:18;;;;;;;2.17;0.60;;;;;;;20.34;75.53;92790.53;5073303;28;20044;-78
2021/07/27 13:57:44;;;;;;;0.30;0.30;;;;;;;20.33;76.49;92791.63;5067077;28;20433;-77
2021/07/27 14:00:13;;;;;;;0.40;0.40;;;;;;;20.28;79.04;92779.38;5062206;28;20028;-78
2021/07/27 14:02:42;;;;;;;1.98;1.23;;;;;;;20.36;79.04;92788.31;5068702;28;20040;-78
2021/07/27 14:05:09;;;;;;;2.35;1.65;;;;;;;20.38;77.47;92786.09;5071546;28;20499;-78
2021/07/27 14:07:35;;;;;;;1.90;1.20;;;;;;;20.49;78.43;92778.38;5073905;28;20398;-77
2021/07/27 14:10:05;;;;;;;2.30;1.30;;;;;;;20.58;78.99;92782.47;5070575;28;20047;-77
2021/07/27 14:12:31;;;;;;;0.95;0.82;;;;;;;20.74;78.67;92781.72;5071903;28;20047;-78
2021/07/27 14:14:57;;;;;;;0.88;0.68;;;;;;;21.05;77.84;92772.19;5074832;28;20033;-79
2021/07/27 14:17:23;;;;;;;0.73;0.70;;;;;;;21.26;77.21;92770.03;5092880;28;20104;-80
2021/07/27 14:19:48;;;;;;;1.10;1.00;;;;;;;21.57;76.60;92763.13;5042056;28;20032;-80
2021/07/27 14:22:14;;;;;;;0.70;0.70;;;;;;;21.83;74.60;92765.97;5063516;28;20175;-79
2021/07/27 14:24:42;;;;;;;1.73;1.15;;;;;;;21.71;73.62;92758.13;5081052;28;20086;-80
2021/07/27 14:27:09;;;;;;;0.70;0.70;;;;;;;21.64;74.76;92763.31;5080663;28;20430;-80
2021/07/27 14:29:36;;;;;;;1.08;0.93;;;;;;;21.57;74.70;92763.13;5067452;28;20059;-80
2021/07/27 14:32:02;;;;;;;1.42;1.00;;;;;;;21.86;74.30;92761.06;5038959;28;20028;-80
2021/07/27 14:34:38;;;;;;;0.90;0.90;;;;;;;21.83;73.44;92752.66;5075521;28;20571;-83
2021/07/27 14:37:05;;;;;;;1.17;1.02;;;;;;;21.25;76.31;92760.50;5077674;28;20044;-80
2021/07/27 14:39:32;;;;;;;0.93;0.80;;;;;;;20.26;78.68;92759.56;5061172;28;20091;-80
2021/07/27 14:41:59;;;;;;;4.32;1.30;;;;;;;19.50;81.99;92762.75;5063315;28;20064;-79
2021/07/27 14:45:09;;;;;;;1.15;0.88;;;;;;;19.43;82.48;92764.41;5077064;28;20032;-80
2021/07/27 14:47:38;;;;;;;1.75;1.10;;;;;;;19.66;81.71;92757.53;5091190;28;20039;-81
2021/07/27 14:50:05;;;;;;;1.40;0.82;;;;;;;19.77;83.28;92757.88;5077571;28;20059;-79
2021/07/27 14:52:31;;;;;;;1.15;0.88;;;;;;;19.84;82.97;92751.97;5081465;28;20033;-81
2021/07/27 14:54:57;;;;;;;0.60;0.60;;;;;;;19.90;82.39;92759.34;5061981;28;20035;-81
2021/07/27 14:57:23;;;;;;;1.38;0.77;;;;;;;19.93;81.05;92760.59;5075036;28;20418;-80
2021/07/27 14:59:48;;;;;;;1.08;0.93;;;;;;;20.01;78.88;92751.69;5075127;28;20036;-80
2021/07/27 15:02:14;;;;;;;0.57;0.50;;;;;;;20.07;77.48;92763.63;5073899;28;20040;-81
2021/07/27 15:04:40;;;;;;;0.98;0.73;;;;;;;19.75;75.01;92768.81;5068654;28;20040;-79
2021/07/27 15:07:06;;;;;;;0.40;0.40;;;;;;;20.02;76.79;92757.75;5072582;28;20039;-80
2021/07/27 15:09:34;;;;;;;1.02;0.70;;;;;;;20.63;76.52;92754.84;5073212;28;20071;-81
2021/07/27 15:11:59;;;;;;;1.73;1.02;;;;;;;21.10;75.84;92740.78;5074819;28;20044;-79
2021/07/27 15:14:25;;;;;;;0.55;0.55;;;;;;;21.39;75.48;92739.53;5074547;28;20127;-80
2021/07/27 15:17:11;;;;;;;4.50;1.45;;;;;;;21.58;73.56;92730.81;5048338;28;20040;-80
2021/07/27 15:19:38;;;;;;;0.20;0.20;;;;;;;21.55;72.87;92723.53;5069397;28;20040;-80